^^
Meteo Knjazevac Station Historical Data
Daily Summary for April 25, 2021 Units:  Both    English   Metric
Daily Weekly Monthly Yearly Custom
  High: Low: Average:
Temperature: 100.2 °F /  37.9 °C 63.9 °F /  17.7 °C 83 °F /  28.3 °C
Dew Point: 77.1 °F /  25.1 °C 59.1 °F /  15.1 °C 67.9 °F /  19.9 °C
Humidity: 85% 34% 63%
Wind Speed: 7mph /  11.3km/h - 2mph /  3.2km/h
Wind Gust: 12mph /  19.3km/h - -
Wind- - SW
Pressure: 30.07 in /  1018.2 hPa 29.96 in /  1014.4 hPa -
Precipitation: 0.00 in /  0 mm    
Historical Graphs
 
 
Tabular Data for April 25, 2021
Time Temperature Dew Point Pressure Wind Wind Speed Wind Gust Humidity Rainfall Rate (Hourly) solar Conditions
00:00 79.7 °F /  26.5 °C 66.9 °F /  19.4 °C 30.05in /  1017.5hPa WSW 2mph /  3.2km/h 3mph /  4.8km/h 65% 0.00in /  0mm 0 W/m2
00:10 78.8 °F /  26 °C 66.9 °F /  19.4 °C 30.05in /  1017.5hPa West 2mph /  3.2km/h 5mph /  8km/h 67% 0.00in /  0mm 0 W/m2
00:20 78.3 °F /  25.7 °C 66.8 °F /  19.3 °C 30.05in /  1017.5hPa West 1mph /  1.6km/h 4mph /  6.4km/h 68% 0.00in /  0mm 0 W/m2
00:30 77.5 °F /  25.3 °C 66.1 °F /  18.9 °C 30.06in /  1017.8hPa NNW 1mph /  1.6km/h 4mph /  6.4km/h 68% 0.00in /  0mm 0 W/m2
00:40 76.8 °F /  24.9 °C 66.3 °F /  19.1 °C 30.06in /  1017.8hPa West 2mph /  3.2km/h 3mph /  4.8km/h 70% 0.00in /  0mm 0 W/m2
00:50 75.9 °F /  24.4 °C 65.4 °F /  18.6 °C 30.06in /  1017.8hPa WNW 2mph /  3.2km/h 4mph /  6.4km/h 70% 0.00in /  0mm 0 W/m2
01:00 75.2 °F /  24 °C 65.5 °F /  18.6 °C 30.06in /  1017.8hPa WNW 1mph /  1.6km/h 3mph /  4.8km/h 72% 0.00in /  0mm 0 W/m2
01:10 74.4 °F /  23.6 °C 65.2 °F /  18.4 °C 30.06in /  1017.8hPa NW 2mph /  3.2km/h 3mph /  4.8km/h 73% 0.00in /  0mm 0 W/m2
01:20 73.6 °F /  23.1 °C 64.8 °F /  18.2 °C 30.06in /  1017.8hPa Calm   3mph /  4.8km/h 74% 0.00in /  0mm 0 W/m2
01:30 73 °F /  22.8 °C 64.6 °F /  18.1 °C 30.06in /  1017.8hPa NNW 1mph /  1.6km/h 2mph /  3.2km/h 75% 0.00in /  0mm 0 W/m2
01:40 72.3 °F /  22.4 °C 63.9 °F /  17.7 °C 30.06in /  1017.8hPa NNW 1mph /  1.6km/h 2mph /  3.2km/h 75% 0.00in /  0mm 0 W/m2
01:50 71.9 °F /  22.2 °C 63.6 °F /  17.6 °C 30.06in /  1017.8hPa NNW 1mph /  1.6km/h 4mph /  6.4km/h 75% 0.00in /  0mm 0 W/m2
02:00 71 °F /  21.7 °C 62.7 °F /  17.1 °C 30.06in /  1017.8hPa WSW 1mph /  1.6km/h 3mph /  4.8km/h 75% 0.00in /  0mm 0 W/m2
02:10 70 °F /  21.1 °C 61.7 °F /  16.5 °C 30.06in /  1017.8hPa West 5mph /  8km/h 6mph /  9.7km/h 75% 0.00in /  0mm 0 W/m2
02:20 69.4 °F /  20.8 °C 61.2 °F /  16.2 °C 30.06in /  1017.8hPa WNW 3mph /  4.8km/h 6mph /  9.7km/h 75% 0.00in /  0mm 0 W/m2
02:30 69 °F /  20.6 °C 61.9 °F /  16.6 °C 30.06in /  1017.8hPa WNW 1mph /  1.6km/h 3mph /  4.8km/h 78% 0.00in /  0mm 0 W/m2
02:40 68.5 °F /  20.3 °C 61.4 °F /  16.3 °C 30.06in /  1017.8hPa WSW 2mph /  3.2km/h 3mph /  4.8km/h 78% 0.00in /  0mm 0 W/m2
02:50 68 °F /  20 °C 61.2 °F /  16.2 °C 30.06in /  1017.8hPa WNW 1mph /  1.6km/h 2mph /  3.2km/h 79% 0.00in /  0mm 0 W/m2
03:00 67.5 °F /  19.7 °C 61.1 °F /  16.2 °C 30.06in /  1017.8hPa Calm   3mph /  4.8km/h 80% 0.00in /  0mm 0 W/m2
03:10 67.3 °F /  19.6 °C 60.9 °F /  16.1 °C 30.06in /  1017.8hPa WNW 1mph /  1.6km/h 3mph /  4.8km/h 80% 0.00in /  0mm 0 W/m2
03:20 66.9 °F /  19.4 °C 60.5 °F /  15.8 °C 30.06in /  1017.8hPa WNW 1mph /  1.6km/h 3mph /  4.8km/h 80% 0.00in /  0mm 0 W/m2
03:30 66.6 °F /  19.2 °C 60.5 °F /  15.8 °C 30.06in /  1017.8hPa WNW 1mph /  1.6km/h 2mph /  3.2km/h 81% 0.00in /  0mm 0 W/m2
03:40 66.2 °F /  19 °C 60.2 °F /  15.7 °C 30.06in /  1017.8hPa Calm   3mph /  4.8km/h 81% 0.00in /  0mm 0 W/m2
03:50 65.8 °F /  18.8 °C 59.8 °F /  15.4 °C 30.06in /  1017.8hPa West 1mph /  1.6km/h 5mph /  8km/h 81% 0.00in /  0mm 0 W/m2
04:00 65.4 °F /  18.6 °C 59.5 °F /  15.3 °C 30.06in /  1017.8hPa WSW 1mph /  1.6km/h 4mph /  6.4km/h 81% 0.00in /  0mm 0 W/m2
04:10 64.9 °F /  18.3 °C 59.7 °F /  15.4 °C 30.06in /  1017.8hPa WNW 1mph /  1.6km/h 4mph /  6.4km/h 83% 0.00in /  0mm 0 W/m2
04:20 64.8 °F /  18.2 °C 59.5 °F /  15.3 °C 30.06in /  1017.8hPa WNW 2mph /  3.2km/h 4mph /  6.4km/h 83% 0.00in /  0mm 0 W/m2
04:30 64.8 °F /  18.2 °C 59.5 °F /  15.3 °C 30.06in /  1017.8hPa NW 1mph /  1.6km/h 5mph /  8km/h 83% 0.00in /  0mm 0 W/m2
04:40 64.8 °F /  18.2 °C 59.5 °F /  15.3 °C 30.06in /  1017.8hPa NW 1mph /  1.6km/h 2mph /  3.2km/h 83% 0.00in /  0mm 0 W/m2
04:50 64.6 °F /  18.1 °C 59.6 °F /  15.3 °C 30.06in /  1017.8hPa WNW 2mph /  3.2km/h 5mph /  8km/h 84% 0.00in /  0mm 3 W/m2
05:00 64.6 °F /  18.1 °C 59.3 °F /  15.2 °C 30.06in /  1017.8hPa West 1mph /  1.6km/h 5mph /  8km/h 83% 0.00in /  0mm 7 W/m2
05:10 64.2 °F /  17.9 °C 59.3 °F /  15.2 °C 30.06in /  1017.8hPa Calm   3mph /  4.8km/h 84% 0.00in /  0mm 14 W/m2
05:20 64 °F /  17.8 °C 59.1 °F /  15.1 °C 30.06in /  1017.8hPa Calm   2mph /  3.2km/h 84% 0.00in /  0mm 23 W/m2
05:30 63.9 °F /  17.7 °C 59.3 °F /  15.2 °C 30.06in /  1017.8hPa NW 2mph /  3.2km/h 4mph /  6.4km/h 85% 0.00in /  0mm 34 W/m2
05:40 64 °F /  17.8 °C 59.4 °F /  15.2 °C 30.06in /  1017.8hPa WNW 1mph /  1.6km/h 3mph /  4.8km/h 85% 0.00in /  0mm 45 W/m2
05:50 64.3 °F /  17.9 °C 59.7 °F /  15.4 °C 30.06in /  1017.8hPa WNW 2mph /  3.2km/h 4mph /  6.4km/h 85% 0.00in /  0mm 60 W/m2
06:00 64.4 °F /  18 °C 59.8 °F /  15.4 °C 30.06in /  1017.8hPa West 2mph /  3.2km/h 4mph /  6.4km/h 85% 0.00in /  0mm 73 W/m2
06:10 64.6 °F /  18.1 °C 60 °F /  15.6 °C 30.07in /  1018.2hPa NW 2mph /  3.2km/h 4mph /  6.4km/h 85% 0.00in /  0mm 107 W/m2
06:20 64.9 °F /  18.3 °C 60.3 °F /  15.7 °C 30.07in /  1018.2hPa NW 2mph /  3.2km/h 3mph /  4.8km/h 85% 0.00in /  0mm 128 W/m2
06:30 65.1 °F /  18.4 °C 60.5 °F /  15.8 °C 30.06in /  1017.8hPa Calm   3mph /  4.8km/h 85% 0.00in /  0mm 152 W/m2
06:40 65.5 °F /  18.6 °C 60.6 °F /  15.9 °C 30.06in /  1017.8hPa NNW 1mph /  1.6km/h 3mph /  4.8km/h 84% 0.00in /  0mm 177 W/m2
06:50 65.9 °F /  18.8 °C 61.2 °F /  16.2 °C 30.06in /  1017.8hPa West 2mph /  3.2km/h 5mph /  8km/h 85% 0.00in /  0mm 207 W/m2
07:00 66.6 °F /  19.2 °C 61.6 °F /  16.4 °C 30.06in /  1017.8hPa West 2mph /  3.2km/h 5mph /  8km/h 84% 0.00in /  0mm 244 W/m2
07:10 67.3 °F /  19.6 °C 62.6 °F /  17 °C 30.06in /  1017.8hPa WSW 2mph /  3.2km/h 3mph /  4.8km/h 85% 0.00in /  0mm 278 W/m2
07:20 68.1 °F /  20.1 °C 63.4 °F /  17.4 °C 30.06in /  1017.8hPa NNW 2mph /  3.2km/h 4mph /  6.4km/h 85% 0.00in /  0mm 312 W/m2
07:30 69.1 °F /  20.6 °C 64 °F /  17.8 °C 30.06in /  1017.8hPa WSW 1mph /  1.6km/h 2mph /  3.2km/h 84% 0.00in /  0mm 343 W/m2
07:40 69.8 °F /  21 °C 64.8 °F /  18.2 °C 30.06in /  1017.8hPa West 2mph /  3.2km/h 4mph /  6.4km/h 84% 0.00in /  0mm 374 W/m2
07:50 70.9 °F /  21.6 °C 65.5 °F /  18.6 °C 30.06in /  1017.8hPa Calm   3mph /  4.8km/h 83% 0.00in /  0mm 402 W/m2
08:00 72 °F /  22.2 °C 65.9 °F /  18.8 °C 30.06in /  1017.8hPa West 2mph /  3.2km/h 4mph /  6.4km/h 81% 0.00in /  0mm 437 W/m2
08:10 72.9 °F /  22.7 °C 66 °F /  18.9 °C 30.07in /  1018.2hPa WNW 1mph /  1.6km/h 4mph /  6.4km/h 79% 0.00in /  0mm 468 W/m2
08:20 73.8 °F /  23.2 °C 67.2 °F /  19.6 °C 30.06in /  1017.8hPa WNW 1mph /  1.6km/h 5mph /  8km/h 80% 0.00in /  0mm 505 W/m2
08:30 75 °F /  23.9 °C 67.7 °F /  19.8 °C 30.06in /  1017.8hPa Calm   3mph /  4.8km/h 78% 0.00in /  0mm 536 W/m2
08:40 76.3 °F /  24.6 °C 68.5 °F /  20.3 °C 30.06in /  1017.8hPa SE 2mph /  3.2km/h 4mph /  6.4km/h 77% 0.00in /  0mm 570 W/m2
08:50 78 °F /  25.6 °C 69 °F /  20.6 °C 30.06in /  1017.8hPa East 2mph /  3.2km/h 7mph /  11.3km/h 74% 0.00in /  0mm 604 W/m2
09:00 80.3 °F /  26.8 °C 70 °F /  21.1 °C 30.06in /  1017.8hPa SE 3mph /  4.8km/h 8mph /  12.9km/h 71% 0.00in /  0mm 635 W/m2
09:10 82.3 °F /  27.9 °C 70.7 °F /  21.5 °C 30.06in /  1017.8hPa ESE 3mph /  4.8km/h 8mph /  12.9km/h 68% 0.00in /  0mm 670 W/m2
09:20 83.9 °F /  28.8 °C 71.8 °F /  22.1 °C 30.06in /  1017.8hPa ESE 2mph /  3.2km/h 6mph /  9.7km/h 67% 0.00in /  0mm 697 W/m2
09:30 85.3 °F /  29.6 °C 72.2 °F /  22.3 °C 30.05in /  1017.5hPa SE 2mph /  3.2km/h 6mph /  9.7km/h 65% 0.00in /  0mm 727 W/m2
09:40 86.6 °F /  30.3 °C 73 °F /  22.8 °C 30.06in /  1017.8hPa SE 3mph /  4.8km/h 5mph /  8km/h 64% 0.00in /  0mm 748 W/m2
09:50 87.9 °F /  31.1 °C 74.2 °F /  23.4 °C 30.05in /  1017.5hPa SE 3mph /  4.8km/h 7mph /  11.3km/h 64% 0.00in /  0mm 778 W/m2
10:00 88.9 °F /  31.6 °C 74.2 °F /  23.4 °C 30.05in /  1017.5hPa ESE 3mph /  4.8km/h 6mph /  9.7km/h 62% 0.00in /  0mm 799 W/m2
10:10 89.7 °F /  32.1 °C 74 °F /  23.3 °C 30.05in /  1017.5hPa ESE 1mph /  1.6km/h 5mph /  8km/h 60% 0.00in /  0mm 822 W/m2
10:20 90.9 °F /  32.7 °C 75.1 °F /  23.9 °C 30.04in /  1017.2hPa SE 1mph /  1.6km/h 7mph /  11.3km/h 60% 0.00in /  0mm 843 W/m2
10:30 91.9 °F /  33.3 °C 74.5 °F /  23.6 °C 30.05in /  1017.5hPa ESE 2mph /  3.2km/h 5mph /  8km/h 57% 0.00in /  0mm 858 W/m2
10:40 92.3 °F /  33.5 °C 72.7 °F /  22.6 °C 30.04in /  1017.2hPa SSW 1mph /  1.6km/h 7mph /  11.3km/h 53% 0.00in /  0mm 803 W/m2
10:50 93.2 °F /  34 °C 74.1 °F /  23.4 °C 30.04in /  1017.2hPa SSE 3mph /  4.8km/h 8mph /  12.9km/h 54% 0.00in /  0mm 869 W/m2
11:00 93.8 °F /  34.3 °C 75.2 °F /  24 °C 30.04in /  1017.2hPa ESE 2mph /  3.2km/h 8mph /  12.9km/h 55% 0.00in /  0mm 905 W/m2
11:10 94.5 °F /  34.7 °C 72.9 °F /  22.7 °C 30.04in /  1017.2hPa SW 3mph /  4.8km/h 5mph /  8km/h 50% 0.00in /  0mm 927 W/m2
11:20 94.6 °F /  34.8 °C 71.9 °F /  22.2 °C 30.04in /  1017.2hPa SSW 2mph /  3.2km/h 5mph /  8km/h 48% 0.00in /  0mm 344 W/m2
11:30 95 °F /  35 °C 72.2 °F /  22.3 °C 30.04in /  1017.2hPa SSE 1mph /  1.6km/h 5mph /  8km/h 48% 0.00in /  0mm 950 W/m2
11:40 95.7 °F /  35.4 °C 72.9 °F /  22.7 °C 30.03in /  1016.8hPa NNE 1mph /  1.6km/h 4mph /  6.4km/h 48% 0.00in /  0mm 959 W/m2
11:50 96.4 °F /  35.8 °C 73.5 °F /  23.1 °C 30.03in /  1016.8hPa NNE 1mph /  1.6km/h 6mph /  9.7km/h 48% 0.00in /  0mm 943 W/m2
12:00 96.8 °F /  36 °C 72 °F /  22.2 °C 30.03in /  1016.8hPa SE 2mph /  3.2km/h 5mph /  8km/h 45% 0.00in /  0mm 660 W/m2
12:10 96.8 °F /  36 °C 72 °F /  22.2 °C 30.03in /  1016.8hPa SE 3mph /  4.8km/h 6mph /  9.7km/h 45% 0.00in /  0mm 444 W/m2
12:20 97 °F /  36.1 °C 71.5 °F /  21.9 °C 30.03in /  1016.8hPa SSW 2mph /  3.2km/h 7mph /  11.3km/h 44% 0.00in /  0mm 539 W/m2
12:30 97.2 °F /  36.2 °C 72.3 °F /  22.4 °C 30.02in /  1016.5hPa WSW 1mph /  1.6km/h 5mph /  8km/h 45% 0.00in /  0mm 936 W/m2
12:40 97.3 °F /  36.3 °C 71.8 °F /  22.1 °C 30.02in /  1016.5hPa SSE 5mph /  8km/h 8mph /  12.9km/h 44% 0.00in /  0mm 589 W/m2
12:50 97.3 °F /  36.3 °C 71.8 °F /  22.1 °C 30.02in /  1016.5hPa South 1mph /  1.6km/h 8mph /  12.9km/h 44% 0.00in /  0mm 515 W/m2
13:00 97.5 °F /  36.4 °C 71.3 °F /  21.8 °C 30.02in /  1016.5hPa SW 1mph /  1.6km/h 6mph /  9.7km/h 43% 0.00in /  0mm 972 W/m2
13:10 97.9 °F /  36.6 °C 72.3 °F /  22.4 °C 30.02in /  1016.5hPa SE 3mph /  4.8km/h 6mph /  9.7km/h 44% 0.00in /  0mm 967 W/m2
13:20 98.1 °F /  36.7 °C 73.1 °F /  22.8 °C 30.01in /  1016.1hPa West 1mph /  1.6km/h 6mph /  9.7km/h 45% 0.00in /  0mm 960 W/m2
13:30 98.5 °F /  36.9 °C 72.8 °F /  22.7 °C 30.01in /  1016.1hPa West 1mph /  1.6km/h 4mph /  6.4km/h 44% 0.00in /  0mm 952 W/m2
13:40 99 °F /  37.2 °C 72.6 °F /  22.6 °C 30.01in /  1016.1hPa SSW 2mph /  3.2km/h 6mph /  9.7km/h 43% 0.00in /  0mm 943 W/m2
13:50 99.3 °F /  37.4 °C 72.9 °F /  22.7 °C 30.01in /  1016.1hPa SSW 2mph /  3.2km/h 6mph /  9.7km/h 43% 0.00in /  0mm 932 W/m2
14:00 99.5 °F /  37.5 °C 73 °F /  22.8 °C 30.01in /  1016.1hPa West 2mph /  3.2km/h 4mph /  6.4km/h 43% 0.00in /  0mm 919 W/m2
14:10 99.3 °F /  37.4 °C 72.1 °F /  22.3 °C 30.00in /  1015.8hPa West 2mph /  3.2km/h 6mph /  9.7km/h 42% 0.00in /  0mm 676 W/m2
14:20 99.1 °F /  37.3 °C 72.7 °F /  22.6 °C 30.00in /  1015.8hPa WSW 2mph /  3.2km/h 6mph /  9.7km/h 43% 0.00in /  0mm 891 W/m2
14:30 99.3 °F /  37.4 °C 70.7 °F /  21.5 °C 30.00in /  1015.8hPa West 6mph /  9.7km/h 10mph /  16.1km/h 40% 0.00in /  0mm 874 W/m2
14:40 99.2 °F /  37.3 °C 69.9 °F /  21.1 °C 30.00in /  1015.8hPa WNW 5mph /  8km/h 11mph /  17.7km/h 39% 0.00in /  0mm 857 W/m2
14:50 99.5 °F /  37.5 °C 70.9 °F /  21.6 °C 30.00in /  1015.8hPa WNW 2mph /  3.2km/h 9mph /  14.5km/h 40% 0.00in /  0mm 838 W/m2
15:00 99.7 °F /  37.6 °C 70.3 °F /  21.3 °C 29.99in /  1015.5hPa West 6mph /  9.7km/h 9mph /  14.5km/h 39% 0.00in /  0mm 818 W/m2
15:10 99.9 °F /  37.7 °C 69.7 °F /  20.9 °C 29.99in /  1015.5hPa West 5mph /  8km/h 10mph /  16.1km/h 38% 0.00in /  0mm 797 W/m2
15:20 100 °F /  37.8 °C 68.3 °F /  20.2 °C 29.99in /  1015.5hPa SW 6mph /  9.7km/h 8mph /  12.9km/h 36% 0.00in /  0mm 774 W/m2
15:30 100 °F /  37.8 °C 67.5 °F /  19.7 °C 29.99in /  1015.5hPa SW 6mph /  9.7km/h 9mph /  14.5km/h 35% 0.00in /  0mm 748 W/m2
15:40 99.9 °F /  37.7 °C 66.5 °F /  19.2 °C 29.99in /  1015.5hPa SW 7mph /  11.3km/h 10mph /  16.1km/h 34% 0.00in /  0mm 704 W/m2
15:50 99.7 °F /  37.6 °C 66.3 °F /  19.1 °C 29.99in /  1015.5hPa SW 7mph /  11.3km/h 12mph /  19.3km/h 34% 0.00in /  0mm 702 W/m2
16:00 99.5 °F /  37.5 °C 66.2 °F /  19 °C 29.98in /  1015.1hPa SW 7mph /  11.3km/h 12mph /  19.3km/h 34% 0.00in /  0mm 674 W/m2
16:10 99.7 °F /  37.6 °C 67.2 °F /  19.6 °C 29.98in /  1015.1hPa WSW 3mph /  4.8km/h 10mph /  16.1km/h 35% 0.00in /  0mm 639 W/m2
16:20 99.8 °F /  37.7 °C 67.2 °F /  19.6 °C 29.98in /  1015.1hPa WSW 5mph /  8km/h 7mph /  11.3km/h 35% 0.00in /  0mm 613 W/m2
16:30 99.9 °F /  37.7 °C 68.9 °F /  20.5 °C 29.97in /  1014.8hPa WSW 2mph /  3.2km/h 7mph /  11.3km/h 37% 0.00in /  0mm 570 W/m2
16:40 100 °F /  37.8 °C 68.3 °F /  20.2 °C 29.97in /  1014.8hPa Calm   5mph /  8km/h 36% 0.00in /  0mm 561 W/m2
16:50 100.2 °F /  37.9 °C 70 °F /  21.1 °C 29.97in /  1014.8hPa WSW 2mph /  3.2km/h 7mph /  11.3km/h 38% 0.00in /  0mm 524 W/m2
17:00 99.9 °F /  37.7 °C 69.7 °F /  20.9 °C 29.97in /  1014.8hPa SW 2mph /  3.2km/h 6mph /  9.7km/h 38% 0.00in /  0mm 218 W/m2
17:10 99.5 °F /  37.5 °C 68.6 °F /  20.3 °C 29.97in /  1014.8hPa SW 5mph /  8km/h 7mph /  11.3km/h 37% 0.00in /  0mm 475 W/m2
17:20 99.4 °F /  37.4 °C 70.8 °F /  21.6 °C 29.96in /  1014.4hPa SSW 3mph /  4.8km/h 7mph /  11.3km/h 40% 0.00in /  0mm 241 W/m2
17:30 98.3 °F /  36.8 °C 69.9 °F /  21.1 °C 29.97in /  1014.8hPa SSW 3mph /  4.8km/h 6mph /  9.7km/h 40% 0.00in /  0mm 181 W/m2
17:40 97.5 °F /  36.4 °C 68.4 °F /  20.2 °C 29.96in /  1014.4hPa SW 2mph /  3.2km/h 5mph /  8km/h 39% 0.00in /  0mm 142 W/m2
17:50 96.7 °F /  35.9 °C 73.2 °F /  22.9 °C 29.96in /  1014.4hPa SSW 1mph /  1.6km/h 4mph /  6.4km/h 47% 0.00in /  0mm 133 W/m2
18:00 95.5 °F /  35.3 °C 75.6 °F /  24.2 °C 29.96in /  1014.4hPa SSE 1mph /  1.6km/h 4mph /  6.4km/h 53% 0.00in /  0mm 101 W/m2
18:10 94.1 °F /  34.5 °C 77.1 °F /  25.1 °C 29.96in /  1014.4hPa SW 1mph /  1.6km/h 5mph /  8km/h 58% 0.00in /  0mm 98 W/m2
18:20 92.8 °F /  33.8 °C 76.4 °F /  24.7 °C 29.97in /  1014.8hPa WSW 1mph /  1.6km/h 4mph /  6.4km/h 59% 0.00in /  0mm 101 W/m2
18:30 91.8 °F /  33.2 °C 75.9 °F /  24.4 °C 29.97in /  1014.8hPa WSW 2mph /  3.2km/h 4mph /  6.4km/h 60% 0.00in /  0mm 127 W/m2
18:40 91 °F /  32.8 °C 76.2 °F /  24.6 °C 29.97in /  1014.8hPa SSW 1mph /  1.6km/h 4mph /  6.4km/h 62% 0.00in /  0mm 104 W/m2
18:50 90.6 °F /  32.6 °C 75.3 °F /  24.1 °C 29.97in /  1014.8hPa SW 1mph /  1.6km/h 3mph /  4.8km/h 61% 0.00in /  0mm 89 W/m2
19:00 90 °F /  32.2 °C 75.2 °F /  24 °C 29.98in /  1015.1hPa SSW 1mph /  1.6km/h 4mph /  6.4km/h 62% 0.00in /  0mm 51 W/m2
19:10 88.9 °F /  31.6 °C 74.2 °F /  23.4 °C 29.98in /  1015.1hPa SSE 2mph /  3.2km/h 4mph /  6.4km/h 62% 0.00in /  0mm 36 W/m2
19:20 88.2 °F /  31.2 °C 74 °F /  23.3 °C 29.98in /  1015.1hPa SE 1mph /  1.6km/h 3mph /  4.8km/h 63% 0.00in /  0mm 16 W/m2
19:30 87.7 °F /  30.9 °C 74 °F /  23.3 °C 29.98in /  1015.1hPa NE 1mph /  1.6km/h 4mph /  6.4km/h 64% 0.00in /  0mm 9 W/m2
19:40 87.1 °F /  30.6 °C 73.9 °F /  23.3 °C 29.98in /  1015.1hPa NNE 2mph /  3.2km/h 6mph /  9.7km/h 65% 0.00in /  0mm 7 W/m2
19:50 86.7 °F /  30.4 °C 74 °F /  23.3 °C 29.99in /  1015.5hPa SSW 2mph /  3.2km/h 3mph /  4.8km/h 66% 0.00in /  0mm 6 W/m2
20:00 86.1 °F /  30.1 °C 73.9 °F /  23.3 °C 29.99in /  1015.5hPa NW 1mph /  1.6km/h 3mph /  4.8km/h 67% 0.00in /  0mm 4 W/m2
20:10 85.5 °F /  29.7 °C 73.7 °F /  23.2 °C 30.00in /  1015.8hPa NNW 3mph /  4.8km/h 10mph /  16.1km/h 68% 0.00in /  0mm 3 W/m2
20:20 85.5 °F /  29.7 °C 72.3 °F /  22.4 °C 30.00in /  1015.8hPa West 3mph /  4.8km/h 8mph /  12.9km/h 65% 0.00in /  0mm 0 W/m2
20:30 85.3 °F /  29.6 °C 69.8 °F /  21 °C 30.02in /  1016.5hPa NNW 2mph /  3.2km/h 9mph /  14.5km/h 60% 0.00in /  0mm 0 W/m2
20:40 85.1 °F /  29.5 °C 70.6 °F /  21.4 °C 30.02in /  1016.5hPa North 1mph /  1.6km/h 8mph /  12.9km/h 62% 0.00in /  0mm 0 W/m2
20:50 84.7 °F /  29.3 °C 70.3 °F /  21.3 °C 30.02in /  1016.5hPa North 3mph /  4.8km/h 8mph /  12.9km/h 62% 0.00in /  0mm 0 W/m2
21:00 84.2 °F /  29 °C 68.8 °F /  20.4 °C 30.01in /  1016.1hPa North 2mph /  3.2km/h 9mph /  14.5km/h 60% 0.00in /  0mm 0 W/m2
21:10 83.6 °F /  28.7 °C 67.7 °F /  19.8 °C 30.01in /  1016.1hPa NNE 2mph /  3.2km/h 7mph /  11.3km/h 59% 0.00in /  0mm 0 W/m2
21:20 83.1 °F /  28.4 °C 67.3 °F /  19.6 °C 30.01in /  1016.1hPa NNE 3mph /  4.8km/h 5mph /  8km/h 59% 0.00in /  0mm 0 W/m2
21:30 82.6 °F /  28.1 °C 66.8 °F /  19.3 °C 30.01in /  1016.1hPa Calm   5mph /  8km/h 59% 0.00in /  0mm 0 W/m2
21:40 82 °F /  27.8 °C 67.7 °F /  19.8 °C 30.01in /  1016.1hPa East 1mph /  1.6km/h 3mph /  4.8km/h 62% 0.00in /  0mm 0 W/m2
21:50 81.3 °F /  27.4 °C 67.5 °F /  19.7 °C 30.00in /  1015.8hPa Calm   2mph /  3.2km/h 63% 0.00in /  0mm 0 W/m2
22:00 80.7 °F /  27.1 °C 67.8 °F /  19.9 °C 30.01in /  1016.1hPa WNW 2mph /  3.2km/h 4mph /  6.4km/h 65% 0.00in /  0mm 0 W/m2
22:10 79.8 °F /  26.6 °C 68.3 °F /  20.2 °C 30.01in /  1016.1hPa SSW 2mph /  3.2km/h 5mph /  8km/h 68% 0.00in /  0mm 0 W/m2
22:20 79.2 °F /  26.2 °C 68.1 °F /  20.1 °C 30.00in /  1015.8hPa WNW 1mph /  1.6km/h 3mph /  4.8km/h 69% 0.00in /  0mm 0 W/m2
22:30 78.7 °F /  25.9 °C 67.7 °F /  19.8 °C 30.01in /  1016.1hPa WSW 1mph /  1.6km/h 4mph /  6.4km/h 69% 0.00in /  0mm 0 W/m2
22:40 77.6 °F /  25.3 °C 66.6 °F /  19.2 °C 30.00in /  1015.8hPa WSW 2mph /  3.2km/h 3mph /  4.8km/h 69% 0.00in /  0mm 0 W/m2
22:50 76.8 °F /  24.9 °C 66.3 °F /  19.1 °C 30.00in /  1015.8hPa WSW 2mph /  3.2km/h 5mph /  8km/h 70% 0.00in /  0mm 0 W/m2
23:00 75.8 °F /  24.3 °C 66.5 °F /  19.2 °C 30.01in /  1016.1hPa West 5mph /  8km/h 8mph /  12.9km/h 73% 0.00in /  0mm 0 W/m2
23:10 75.2 °F /  24 °C 66.3 °F /  19.1 °C 30.01in /  1016.1hPa West 2mph /  3.2km/h 7mph /  11.3km/h 74% 0.00in /  0mm 0 W/m2
23:20 75 °F /  23.9 °C 66.6 °F /  19.2 °C 30.01in /  1016.1hPa West 2mph /  3.2km/h 5mph /  8km/h 75% 0.00in /  0mm 0 W/m2
23:30 74.8 °F /  23.8 °C 66.4 °F /  19.1 °C 30.02in /  1016.5hPa Calm   2mph /  3.2km/h 75% 0.00in /  0mm 0 W/m2
23:40 74.7 °F /  23.7 °C 66.2 °F /  19 °C 30.02in /  1016.5hPa NW 1mph /  1.6km/h 2mph /  3.2km/h 75% 0.00in /  0mm 0 W/m2
Knjazevac, Serbia
Compliments of Weather Underground - 2 mb